createdAt,value
2023-03-15T00:02:12.345Z,99.90
2023-03-15T00:04:39.387Z,99.90
2023-03-15T00:07:07.376Z,99.90
2023-03-15T00:09:34.345Z,99.90
2023-03-15T00:12:01.373Z,99.90
2023-03-15T00:14:28.312Z,99.90
2023-03-15T00:16:55.477Z,99.90
2023-03-15T00:19:22.366Z,99.90
2023-03-15T00:21:49.308Z,99.90
2023-03-15T00:24:18.461Z,99.90
2023-03-15T00:26:45.584Z,99.90
2023-03-15T00:29:12.485Z,99.90
2023-03-15T00:31:40.550Z,99.90
2023-03-15T00:34:07.485Z,99.90
2023-03-15T00:36:35.535Z,99.90
2023-03-15T00:39:03.580Z,99.90
2023-03-15T00:41:31.658Z,99.90
2023-03-15T00:43:58.713Z,99.90
2023-03-15T00:46:26.035Z,99.90
2023-03-15T00:48:53.169Z,99.90
2023-03-15T00:51:22.830Z,99.90
2023-03-15T00:53:51.763Z,99.90
2023-03-15T00:56:24.954Z,99.90
2023-03-15T00:58:55.115Z,99.90
2023-03-15T01:01:31.071Z,99.90
2023-03-15T01:03:58.284Z,99.90
2023-03-15T01:06:27.801Z,99.90
2023-03-15T01:08:56.785Z,99.90
2023-03-15T01:11:27.056Z,99.90
2023-03-15T01:14:00.659Z,99.90
2023-03-15T01:16:28.483Z,99.90
2023-03-15T01:18:56.041Z,99.90
2023-03-15T01:21:42.217Z,99.90
2023-03-15T01:24:13.385Z,99.90
2023-03-15T01:26:40.930Z,99.90
2023-03-15T01:29:24.378Z,99.90
2023-03-15T01:31:51.419Z,99.90
2023-03-15T01:34:18.372Z,99.90
2023-03-15T01:36:55.184Z,99.90
2023-03-15T01:39:22.121Z,99.90
2023-03-15T01:41:49.610Z,99.90
2023-03-15T01:44:18.530Z,99.90
2023-03-15T01:46:46.269Z,99.90
2023-03-15T01:49:28.997Z,99.90
2023-03-15T01:52:04.099Z,99.90
2023-03-15T01:54:41.702Z,99.90
2023-03-15T01:57:22.899Z,99.90
2023-03-15T01:59:58.588Z,99.90
2023-03-15T02:02:26.178Z,99.90
2023-03-15T02:05:09.994Z,99.90
2023-03-15T02:07:38.757Z,99.90
2023-03-15T02:10:10.966Z,99.90
2023-03-15T02:12:48.108Z,99.90
2023-03-15T02:15:15.226Z,99.90
2023-03-15T02:17:45.714Z,99.90
2023-03-15T02:20:43.983Z,99.90
2023-03-15T02:23:17.289Z,99.90
2023-03-15T02:25:56.416Z,99.90
2023-03-15T02:28:23.986Z,99.90
2023-03-15T02:30:51.506Z,99.90
2023-03-15T02:33:28.618Z,99.90
2023-03-15T02:35:57.090Z,99.90
2023-03-15T02:38:28.256Z,99.90
2023-03-15T02:40:55.832Z,99.90
2023-03-15T02:43:28.956Z,99.90
2023-03-15T02:45:56.398Z,99.90
2023-03-15T02:48:23.509Z,99.90
2023-03-15T02:50:50.593Z,99.90
2023-03-15T02:53:17.604Z,99.90
2023-03-15T02:55:46.698Z,99.90
2023-03-15T02:58:13.847Z,99.90
2023-03-15T03:00:40.843Z,99.90
2023-03-15T03:03:09.108Z,99.90
2023-03-15T03:05:36.069Z,99.90
2023-03-15T03:08:04.260Z,99.90
2023-03-15T03:10:31.367Z,99.90
2023-03-15T03:12:58.339Z,99.90
2023-03-15T03:15:25.413Z,99.90
2023-03-15T03:17:52.454Z,99.90
2023-03-15T03:20:19.677Z,99.90
2023-03-15T03:22:46.682Z,99.90
2023-03-15T03:25:14.870Z,99.90
2023-03-15T03:27:41.913Z,99.90
2023-03-15T03:30:11.995Z,99.90
2023-03-15T03:32:40.698Z,99.90
2023-03-15T03:35:09.006Z,99.90
2023-03-15T03:37:36.241Z,99.90
2023-03-15T03:40:07.932Z,99.90
2023-03-15T03:42:35.781Z,99.90
2023-03-15T03:45:02.861Z,99.90
2023-03-15T03:47:29.808Z,99.90
2023-03-15T03:49:56.920Z,99.90
2023-03-15T03:52:23.885Z,99.90
2023-03-15T03:54:51.019Z,99.90
2023-03-15T03:57:18.099Z,99.90
2023-03-15T03:59:45.052Z,99.90
2023-03-15T04:02:12.306Z,99.90
2023-03-15T04:04:41.481Z,99.90
2023-03-15T04:07:11.619Z,99.90
2023-03-15T04:09:38.553Z,99.90
2023-03-15T04:12:06.553Z,99.90
2023-03-15T04:14:33.635Z,99.90
2023-03-15T04:17:03.896Z,99.90
2023-03-15T04:19:31.461Z,99.90
2023-03-15T04:21:58.442Z,99.90
2023-03-15T04:24:25.964Z,99.90
2023-03-15T04:26:58.021Z,99.90
2023-03-15T04:29:25.089Z,99.90
2023-03-15T04:31:52.332Z,99.90
2023-03-15T04:34:19.366Z,99.90
2023-03-15T04:36:46.537Z,99.90
2023-03-15T04:39:13.704Z,99.90
2023-03-15T04:41:41.963Z,99.90
2023-03-15T04:44:08.942Z,99.90
2023-03-15T04:46:38.207Z,99.90
2023-03-15T04:49:06.223Z,99.90
2023-03-15T04:51:34.553Z,99.90
2023-03-15T04:54:05.672Z,99.90
2023-03-15T04:56:51.784Z,99.90
2023-03-15T04:59:18.776Z,99.90
2023-03-15T05:01:48.194Z,99.90
2023-03-15T05:04:15.181Z,99.90
2023-03-15T05:06:42.123Z,99.90
2023-03-15T05:09:09.165Z,99.90
2023-03-15T05:11:36.106Z,99.90
2023-03-15T05:14:05.089Z,99.90
2023-03-15T05:16:32.121Z,99.90
2023-03-15T05:18:59.330Z,99.90
2023-03-15T05:21:26.358Z,99.90
2023-03-15T05:23:53.637Z,99.90
2023-03-15T05:26:20.914Z,99.90
2023-03-15T05:28:49.243Z,99.90
2023-03-15T05:31:25.665Z,99.90
2023-03-15T05:33:54.640Z,99.90
2023-03-15T05:36:22.782Z,99.90
2023-03-15T05:38:49.735Z,99.90
2023-03-15T05:41:18.285Z,99.90
2023-03-15T05:43:48.786Z,99.90
2023-03-15T05:46:16.428Z,99.90
2023-03-15T05:48:43.620Z,99.90
2023-03-15T05:51:10.669Z,99.90
2023-03-15T05:53:38.323Z,99.90
2023-03-15T05:56:05.978Z,99.90
2023-03-15T05:58:33.095Z,99.90
2023-03-15T06:01:01.635Z,99.90
2023-03-15T06:03:28.772Z,99.90
2023-03-15T06:05:56.069Z,99.90
2023-03-15T06:08:23.194Z,99.90
2023-03-15T06:10:53.001Z,99.90
2023-03-15T06:13:19.963Z,99.90
2023-03-15T06:15:48.484Z,99.90
2023-03-15T06:18:17.447Z,99.90
2023-03-15T06:20:45.733Z,99.90
2023-03-15T06:23:14.016Z,99.90
2023-03-15T06:25:41.030Z,99.90
2023-03-15T06:28:08.580Z,99.90
2023-03-15T06:30:37.460Z,99.90
2023-03-15T06:33:04.955Z,99.90
2023-03-15T06:35:41.120Z,99.90
2023-03-15T06:38:11.006Z,99.90
2023-03-15T06:40:39.076Z,99.90
2023-03-15T06:43:06.923Z,99.90
2023-03-15T06:45:35.566Z,99.90
2023-03-15T06:48:03.279Z,99.90
2023-03-15T06:50:40.615Z,99.90
2023-03-15T06:53:14.707Z,99.90
2023-03-15T06:55:41.898Z,99.90
2023-03-15T06:58:09.785Z,99.90
2023-03-15T07:00:37.756Z,99.90
2023-03-15T07:03:05.443Z,99.90
2023-03-15T07:05:32.464Z,99.90
2023-03-15T07:07:59.634Z,99.90
2023-03-15T07:10:26.627Z,99.90
2023-03-15T07:12:53.548Z,99.90
2023-03-15T07:15:21.153Z,99.90
2023-03-15T07:17:48.741Z,99.90
2023-03-15T07:20:15.904Z,99.90
2023-03-15T07:22:46.044Z,99.90
2023-03-15T07:25:13.787Z,99.90
2023-03-15T07:27:41.479Z,99.90
2023-03-15T07:30:10.395Z,99.30
2023-03-15T07:32:39.195Z,98.00
2023-03-15T07:35:06.590Z,97.10
2023-03-15T07:37:33.564Z,97.70
2023-03-15T07:40:12.310Z,98.60
2023-03-15T07:42:40.669Z,98.60
2023-03-15T07:45:09.549Z,98.00
2023-03-15T07:47:36.610Z,98.40
2023-03-15T07:50:06.526Z,97.60
2023-03-15T07:52:33.480Z,97.30
2023-03-15T07:55:00.571Z,98.10
2023-03-15T07:57:28.946Z,99.10
2023-03-15T08:00:02.540Z,98.20
2023-03-15T08:02:30.755Z,98.00
2023-03-15T08:04:59.296Z,98.70
2023-03-15T08:07:26.439Z,99.90
2023-03-15T08:09:53.341Z,99.90
2023-03-15T08:12:20.297Z,99.90
2023-03-15T08:14:48.708Z,99.90
2023-03-15T08:17:16.928Z,99.90
2023-03-15T08:19:44.492Z,99.90
2023-03-15T08:22:12.192Z,99.90
2023-03-15T08:24:39.446Z,99.90
2023-03-15T08:27:06.508Z,99.90
2023-03-15T08:29:40.071Z,99.90
2023-03-15T08:32:08.333Z,99.90
2023-03-15T08:34:35.968Z,99.90
2023-03-15T08:37:03.170Z,99.90
2023-03-15T08:39:30.815Z,99.90
2023-03-15T08:41:58.011Z,99.90
2023-03-15T08:44:27.695Z,99.90
2023-03-15T08:46:55.317Z,99.90
2023-03-15T08:49:53.321Z,99.90
2023-03-15T08:55:18.617Z,99.90
2023-03-15T08:57:46.618Z,99.90
2023-03-15T09:00:27.374Z,99.90
2023-03-15T09:02:55.199Z,99.90
2023-03-15T09:05:23.590Z,99.90
2023-03-15T09:07:55.447Z,99.90
2023-03-15T09:10:22.575Z,99.90
2023-03-15T09:12:52.323Z,99.90
2023-03-15T09:15:19.779Z,99.90
2023-03-15T09:17:48.890Z,99.90
2023-03-15T09:20:16.924Z,99.90
2023-03-15T09:22:45.113Z,99.90
2023-03-15T09:25:13.189Z,99.90
2023-03-15T09:27:40.088Z,99.90
2023-03-15T09:30:07.790Z,99.90
2023-03-15T09:32:36.612Z,99.90
2023-03-15T09:35:05.531Z,99.90
2023-03-15T09:37:33.089Z,99.90
2023-03-15T09:40:00.244Z,99.90
2023-03-15T09:42:54.213Z,99.90
2023-03-15T09:45:21.135Z,99.90
2023-03-15T09:48:12.236Z,99.90
2023-03-15T09:50:57.177Z,99.90
2023-03-15T09:53:39.794Z,99.90
2023-03-15T09:57:00.123Z,99.90
2023-03-15T09:59:46.009Z,99.90
2023-03-15T10:02:27.400Z,99.90
2023-03-15T10:05:22.351Z,99.90
2023-03-15T10:07:49.394Z,99.90
2023-03-15T10:10:57.321Z,99.90
2023-03-15T10:16:48.171Z,99.90
2023-03-15T10:19:23.737Z,99.90
2023-03-15T10:22:32.535Z,99.90
2023-03-15T10:25:16.621Z,99.90
2023-03-15T10:27:51.978Z,99.90
2023-03-15T10:30:33.286Z,99.90
2023-03-15T10:33:05.422Z,99.90
2023-03-15T10:35:52.497Z,99.90
2023-03-15T10:38:26.224Z,99.90
2023-03-15T10:41:00.784Z,99.90
2023-03-15T10:43:39.858Z,99.90
2023-03-15T10:46:13.020Z,99.90
2023-03-15T10:49:08.269Z,99.90
2023-03-15T10:51:52.970Z,99.90
2023-03-15T10:54:22.802Z,99.90
2023-03-15T10:57:04.428Z,99.90
2023-03-15T10:59:35.897Z,99.90
2023-03-15T11:02:26.471Z,99.90
2023-03-15T11:05:30.097Z,99.90
2023-03-15T11:08:00.316Z,99.90
2023-03-15T11:10:33.648Z,99.90
2023-03-15T11:13:11.041Z,99.90
2023-03-15T11:15:40.417Z,99.90
2023-03-15T11:18:18.581Z,99.90
2023-03-15T11:20:45.822Z,99.90
2023-03-15T11:23:20.988Z,99.90
2023-03-15T11:25:48.154Z,99.90
2023-03-15T11:28:23.603Z,99.90
2023-03-15T11:30:51.828Z,99.90
2023-03-15T11:33:41.936Z,99.90
2023-03-15T11:36:15.963Z,99.90
2023-03-15T11:38:45.761Z,99.90
2023-03-15T11:41:37.659Z,99.90
2023-03-15T11:44:11.306Z,99.90
2023-03-15T11:46:50.149Z,99.90
2023-03-15T11:49:42.983Z,99.90
2023-03-15T11:52:11.714Z,99.90
2023-03-15T11:54:40.863Z,99.90
2023-03-15T11:57:42.058Z,99.90
2023-03-15T12:00:54.329Z,99.90
2023-03-15T12:03:40.554Z,99.90
2023-03-15T12:06:36.462Z,99.90
2023-03-15T12:09:32.720Z,99.90
2023-03-15T12:12:27.404Z,99.90
2023-03-15T12:15:19.068Z,99.90
2023-03-15T12:17:51.728Z,99.90
2023-03-15T12:20:34.806Z,99.90
2023-03-15T12:23:20.177Z,99.90
2023-03-15T12:26:02.811Z,99.90
2023-03-15T12:29:12.243Z,99.90
2023-03-15T12:31:53.145Z,99.90
2023-03-15T12:34:46.997Z,99.90
2023-03-15T12:37:39.405Z,99.90
2023-03-15T12:40:15.661Z,99.90
2023-03-15T12:42:42.745Z,99.90
2023-03-15T12:45:16.239Z,99.90
2023-03-15T12:47:51.238Z,99.90
2023-03-15T12:50:37.575Z,99.90
2023-03-15T12:53:30.354Z,99.90
2023-03-15T12:56:08.095Z,99.90
2023-03-15T12:58:37.810Z,99.90
2023-03-15T13:01:08.156Z,99.90
2023-03-15T13:03:36.737Z,99.90
2023-03-15T13:06:35.108Z,99.90
2023-03-15T13:09:23.593Z,99.90
2023-03-15T13:12:12.942Z,99.90
2023-03-15T13:15:21.713Z,99.90
2023-03-15T13:17:59.045Z,99.90
2023-03-15T13:20:59.715Z,99.90
2023-03-15T13:23:31.522Z,99.90
2023-03-15T13:26:20.905Z,99.90
2023-03-15T13:29:06.360Z,99.90
2023-03-15T13:31:34.457Z,99.90
2023-03-15T13:34:22.107Z,99.90
2023-03-15T13:36:58.292Z,99.90
2023-03-15T13:39:29.532Z,99.90
2023-03-15T13:42:05.352Z,99.90
2023-03-15T13:44:33.991Z,99.90
2023-03-15T13:47:01.190Z,99.90
2023-03-15T13:49:33.764Z,99.90
2023-03-15T13:52:04.269Z,99.90
2023-03-15T13:54:33.441Z,99.90
2023-03-15T13:57:22.272Z,99.90
2023-03-15T14:00:02.571Z,99.90
2023-03-15T14:02:37.902Z,99.90
2023-03-15T14:05:11.287Z,99.90
2023-03-15T14:07:48.665Z,99.90
2023-03-15T14:10:31.916Z,99.90
2023-03-15T14:13:17.879Z,99.90
2023-03-15T14:15:48.013Z,99.90
2023-03-15T14:18:23.427Z,99.90
2023-03-15T14:21:07.582Z,99.90
2023-03-15T14:23:41.262Z,99.90
2023-03-15T14:26:18.602Z,99.90
2023-03-15T14:29:21.654Z,99.90
2023-03-15T14:31:51.618Z,99.90
2023-03-15T14:37:36.758Z,99.90
2023-03-15T14:40:15.095Z,99.90
2023-03-15T14:42:44.888Z,99.90
2023-03-15T14:45:12.710Z,99.90
2023-03-15T14:47:57.042Z,99.90
2023-03-15T14:50:36.870Z,99.90
2023-03-15T14:53:08.036Z,99.90
2023-03-15T14:55:37.582Z,99.90
2023-03-15T14:58:37.016Z,99.90
2023-03-15T15:01:04.911Z,99.90
2023-03-15T15:03:58.891Z,99.90
2023-03-15T15:06:29.675Z,99.90
2023-03-15T15:08:59.229Z,99.90
2023-03-15T15:11:29.308Z,99.90
2023-03-15T15:13:58.205Z,99.90
2023-03-15T15:16:26.523Z,99.90
2023-03-15T15:18:53.648Z,99.90
2023-03-15T15:21:38.814Z,99.90
2023-03-15T15:24:18.086Z,99.90
2023-03-15T15:26:46.129Z,99.90
2023-03-15T15:29:18.142Z,99.90
2023-03-15T15:31:46.370Z,99.90
2023-03-15T15:34:14.249Z,99.90
2023-03-15T15:36:54.921Z,99.90
2023-03-15T15:39:29.642Z,99.90
2023-03-15T15:41:56.884Z,99.90
2023-03-15T15:44:27.653Z,99.90
2023-03-15T15:46:56.723Z,99.90
2023-03-15T15:49:24.563Z,99.90
2023-03-15T15:52:12.156Z,99.90
2023-03-15T15:54:40.065Z,99.90
2023-03-15T15:57:10.948Z,99.90
2023-03-15T15:59:41.320Z,99.90
2023-03-15T16:02:17.588Z,99.90
2023-03-15T16:04:44.906Z,99.90
2023-03-15T16:07:19.172Z,99.90
2023-03-15T16:09:47.164Z,99.90
2023-03-15T16:12:19.442Z,99.90
2023-03-15T16:14:46.564Z,99.90
2023-03-15T16:17:23.557Z,99.90
2023-03-15T16:19:52.317Z,99.90
2023-03-15T16:22:23.029Z,99.90
2023-03-15T16:24:55.099Z,99.90
2023-03-15T16:27:28.154Z,99.90
2023-03-15T16:29:56.041Z,99.90
2023-03-15T16:32:37.242Z,99.90
2023-03-15T16:35:15.721Z,99.90
2023-03-15T16:37:43.946Z,99.90
2023-03-15T16:40:22.200Z,99.90
2023-03-15T16:42:51.296Z,99.90
2023-03-15T16:45:30.355Z,99.90
2023-03-15T16:47:58.170Z,99.90
2023-03-15T16:50:26.816Z,99.90
2023-03-15T16:52:57.106Z,99.90
2023-03-15T16:55:29.016Z,99.90
2023-03-15T16:58:14.940Z,99.90
2023-03-15T17:00:47.139Z,99.90
2023-03-15T17:03:16.509Z,99.90
2023-03-15T17:05:58.500Z,99.90
2023-03-15T17:08:26.347Z,99.90
2023-03-15T17:11:04.496Z,99.90
2023-03-15T17:13:32.872Z,99.90
2023-03-15T17:16:00.203Z,99.90
2023-03-15T17:18:28.661Z,99.90
2023-03-15T17:20:55.684Z,99.90
2023-03-15T17:23:26.791Z,99.90
2023-03-15T17:25:53.944Z,99.90
2023-03-15T17:28:21.073Z,99.90
2023-03-15T17:30:49.773Z,99.90
2023-03-15T17:33:20.595Z,99.90
2023-03-15T17:35:54.484Z,99.90
2023-03-15T17:38:36.041Z,99.90
2023-03-15T17:41:03.185Z,99.90
2023-03-15T17:43:31.255Z,99.90
2023-03-15T17:45:58.241Z,99.90
2023-03-15T17:48:25.674Z,99.90
2023-03-15T17:50:52.799Z,99.90
2023-03-15T17:53:21.241Z,99.90
2023-03-15T17:55:49.274Z,99.90
2023-03-15T17:58:22.055Z,99.90
2023-03-15T18:00:51.264Z,99.90
2023-03-15T18:03:33.784Z,99.90
2023-03-15T18:06:01.558Z,99.90
2023-03-15T18:08:43.817Z,99.90
2023-03-15T18:11:27.683Z,99.90
2023-03-15T18:13:55.577Z,99.90
2023-03-15T18:16:22.711Z,99.90
2023-03-15T18:18:49.817Z,99.90
2023-03-15T18:21:20.362Z,99.90
2023-03-15T18:23:47.610Z,99.90
2023-03-15T18:26:17.545Z,99.90
2023-03-15T18:28:44.888Z,99.90
2023-03-15T18:31:18.216Z,99.90
2023-03-15T18:33:45.590Z,99.90
2023-03-15T18:36:12.778Z,99.90
2023-03-15T18:38:40.321Z,99.90
2023-03-15T18:41:22.901Z,99.90
2023-03-15T18:43:51.588Z,99.90
2023-03-15T18:46:20.552Z,99.90
2023-03-15T18:48:49.873Z,99.90
2023-03-15T18:51:20.035Z,99.90
2023-03-15T18:53:47.241Z,99.90
2023-03-15T18:56:19.413Z,99.90
2023-03-15T18:58:50.909Z,99.90
2023-03-15T19:01:19.548Z,99.90
2023-03-15T19:03:46.691Z,99.90
2023-03-15T19:06:14.154Z,99.90
2023-03-15T19:08:41.936Z,99.90
2023-03-15T19:11:10.650Z,99.90
2023-03-15T19:13:39.277Z,99.90
2023-03-15T19:16:06.462Z,99.90
2023-03-15T19:18:34.038Z,99.90
2023-03-15T19:21:01.752Z,99.90
2023-03-15T19:23:28.841Z,99.90
2023-03-15T19:25:55.845Z,99.90
2023-03-15T19:28:23.664Z,99.90
2023-03-15T19:30:51.784Z,99.90
2023-03-15T19:33:19.221Z,99.90
2023-03-15T19:35:46.178Z,99.90
2023-03-15T19:38:13.514Z,99.90
2023-03-15T19:40:40.726Z,99.90
2023-03-15T19:43:10.178Z,99.90
2023-03-15T19:45:37.189Z,99.90
2023-03-15T19:48:04.629Z,99.90
2023-03-15T19:50:34.105Z,99.90
2023-03-15T19:53:01.093Z,99.90
2023-03-15T19:55:31.362Z,99.90
2023-03-15T19:57:58.720Z,99.90
2023-03-15T20:00:25.999Z,99.90
2023-03-15T20:02:53.100Z,99.90
2023-03-15T20:05:21.510Z,99.90
2023-03-15T20:07:51.778Z,99.90
2023-03-15T20:10:20.107Z,99.90
2023-03-15T20:12:47.414Z,99.90
2023-03-15T20:15:17.752Z,99.90
2023-03-15T20:17:44.919Z,99.90
2023-03-15T20:20:13.918Z,99.90
2023-03-15T20:22:43.168Z,99.90
2023-03-15T20:25:14.480Z,99.90
2023-03-15T20:27:42.013Z,99.90
2023-03-15T20:30:10.610Z,99.90
2023-03-15T20:32:38.105Z,99.90
2023-03-15T20:35:09.409Z,99.90
2023-03-15T20:37:39.887Z,99.90
2023-03-15T20:40:09.128Z,99.90
2023-03-15T20:42:36.361Z,99.90
2023-03-15T20:45:04.530Z,99.90
2023-03-15T20:47:31.791Z,99.90
2023-03-15T20:50:00.275Z,99.90
2023-03-15T20:52:27.516Z,99.90
2023-03-15T20:54:54.629Z,99.90
2023-03-15T20:57:21.562Z,99.90
2023-03-15T20:59:48.512Z,99.90
2023-03-15T21:02:15.611Z,99.90
2023-03-15T21:04:44.612Z,99.90
2023-03-15T21:07:11.961Z,99.90
2023-03-15T21:09:39.774Z,99.90
2023-03-15T21:12:08.138Z,99.90
2023-03-15T21:14:35.566Z,99.90
2023-03-15T21:17:02.761Z,99.90
2023-03-15T21:19:29.989Z,99.90
2023-03-15T21:21:59.051Z,99.90
2023-03-15T21:24:31.161Z,99.90
2023-03-15T21:26:58.401Z,99.90
2023-03-15T21:29:25.472Z,99.90
2023-03-15T21:31:52.641Z,99.90
2023-03-15T21:34:19.643Z,99.90
2023-03-15T21:36:46.595Z,99.90
2023-03-15T21:39:13.538Z,99.90
2023-03-15T21:41:40.558Z,99.90
2023-03-15T21:44:07.618Z,99.90
2023-03-15T21:46:34.607Z,99.90
2023-03-15T21:49:01.881Z,99.90
2023-03-15T21:51:29.519Z,99.90
2023-03-15T21:53:56.570Z,99.90
2023-03-15T21:56:26.322Z,99.90
2023-03-15T21:58:54.350Z,99.90
2023-03-15T22:01:22.771Z,99.90
2023-03-15T22:03:50.748Z,99.90
2023-03-15T22:06:18.044Z,99.90
2023-03-15T22:08:45.155Z,99.90
2023-03-15T22:11:12.194Z,99.90
2023-03-15T22:13:41.700Z,99.90
2023-03-15T22:16:10.462Z,99.90
2023-03-15T22:18:37.624Z,99.90
2023-03-15T22:21:04.768Z,99.90
2023-03-15T22:23:31.818Z,99.90
2023-03-15T22:25:58.808Z,99.90
2023-03-15T22:28:25.755Z,99.90
2023-03-15T22:30:52.908Z,99.90
2023-03-15T22:33:21.629Z,99.90
2023-03-15T22:35:58.163Z,99.90
2023-03-15T22:38:26.172Z,99.90
2023-03-15T22:41:02.867Z,99.90
2023-03-15T22:43:30.243Z,99.90
2023-03-15T22:45:57.321Z,99.90
2023-03-15T22:48:24.744Z,99.90
2023-03-15T22:51:03.845Z,99.90
2023-03-15T22:53:31.532Z,99.90
2023-03-15T22:55:58.682Z,99.90
2023-03-15T22:58:26.374Z,99.90
2023-03-15T23:00:55.220Z,99.90
2023-03-15T23:03:22.282Z,99.90
2023-03-15T23:05:50.397Z,99.90
2023-03-15T23:08:17.357Z,99.90
2023-03-15T23:10:44.339Z,99.90
2023-03-15T23:13:11.861Z,99.90
2023-03-15T23:15:39.040Z,99.90
2023-03-15T23:18:06.396Z,99.90
2023-03-15T23:20:33.594Z,99.90
2023-03-15T23:23:01.628Z,99.90
2023-03-15T23:25:28.994Z,99.90
2023-03-15T23:27:56.994Z,99.90
2023-03-15T23:30:24.045Z,99.90
2023-03-15T23:32:57.548Z,99.90
2023-03-15T23:35:24.817Z,99.90
2023-03-15T23:37:53.116Z,99.90
2023-03-15T23:40:20.945Z,99.90
2023-03-15T23:42:48.806Z,99.90
2023-03-15T23:45:16.011Z,99.90
2023-03-15T23:47:43.165Z,99.90
2023-03-15T23:50:12.788Z,99.90
2023-03-15T23:52:41.561Z,99.90
2023-03-15T23:55:08.914Z,99.90
2023-03-15T23:57:36.052Z,99.90
